FW6209 Weather Reports


time (UTC)temp
F
wind
direction
speed
knots
gust
knots
rain 1hr
in
rain 24hr
in
rain mn
in
humidity
%
barometer
mb
20210920043309 61 345 0.9 2.6 0.00 0.01 0.01 77 1013.9
20210920042802 61 345 0.9 1.7 0.00 0.01 0.01 78 1014.1
20210920042257 61 345 0.0 1.7 0.00 0.01 0.01 80 1014.1
20210920041750 61 345 0.9 1.7 0.00 0.01 0.01 80 1014.1
20210920041244 61 345 0.9 1.7 0.00 0.01 0.01 80 1013.8
20210920040738 61 345 0.0 0.9 0.00 0.01 0.01 79 1013.9
20210920040233 61 345 0.0 0.9 0.00 0.01 0.01 78 1013.9
20210920035726 61 345 0.0 0.9 0.00 0.01 0.01 78 1013.8
20210920035220 61 345 0.9 2.6 0.00 0.01 0.01 78 1013.8
20210920034714 61 345 0.9 2.6 0.00 0.01 0.01 78 1013.7
20210920034208 62 345 0.0 1.7 0.00 0.01 0.01 78 1013.9
20210920033702 62 345 0.9 1.7 0.00 0.01 0.01 78 1013.9
20210920033156 62 345 0.9 1.7 0.00 0.01 0.01 76 1013.7
20210920032650 62 345 0.0 1.7 0.00 0.01 0.01 75 1013.7
20210920032145 63 345 0.0 0.9 0.00 0.01 0.01 75 1013.7
20210920031638 63 345 0.0 1.7 0.00 0.01 0.01 74 1013.8
20210920031132 63 345 0.0 1.7 0.00 0.01 0.01 73 1013.8
20210920030626 63 345 0.0 0.0 0.00 0.01 0.01 73 1013.7
20210920030120 63 345 0.0 1.7 0.00 0.01 0.01 72 1013.8
20210920025614 64 345 0.9 1.7 0.00 0.01 0.01 72 1013.7
20210920025108 64 345 0.0 1.7 0.00 0.01 0.01 72 1013.6
20210920024602 64 345 0.0 1.7 0.00 0.01 0.01 71 1013.6
20210920024057 65 346 0.0 1.7 0.00 0.01 0.01 71 1013.5
20210920023550 65 346 0.0 0.9 0.00 0.01 0.01 70 1013.6
20210920023044 65 346 0.0 2.6 0.00 0.01 0.01 69 1013.6
20210920022538 66 346 0.0 2.6 0.00 0.01 0.01 68 1013.6
20210920022032 66 256 0.0 1.7 0.00 0.01 0.01 65 1013.7
20210920021526 67 256 0.0 0.0 0.00 0.01 0.01 65 1013.5
20210920021020 67 256 0.0 0.9 0.00 0.01 0.01 63 1013.5
20210920020514 67 256 0.0 0.9 0.00 0.01 0.01 62 1013.4
20210920020008 67 256 0.0 0.9 0.00 0.01 0.01 62 1013.4
20210920015502 68 256 1.7 4.3 0.00 0.01 0.01 62 1013.5
20210920014956 68 256 1.7 5.2 0.00 0.01 0.01 62 1013.4
20210920014451 69 247 1.7 4.3 0.00 0.01 0.01 61 1013.5
20210920013944 69 242 2.6 6.1 0.00 0.01 0.01 60 1013.4
20210920013438 70 240 1.7 6.1 0.00 0.01 0.01 58 1013.4
20210920012932 71 235 0.9 2.6 0.00 0.01 0.01 55 1013.4
20210920012426 72 238 0.9 2.6 0.00 0.01 0.01 54 1013.2
20210920011920 73 234 0.0 1.7 0.00 0.01 0.01 54 1013.2
20210920011414 73 234 0.0 1.7 0.00 0.01 0.01 54 1013.2
20210920010908 73 234 0.9 5.2 0.00 0.01 0.01 54 1013.2
20210920010403 74 234 0.9 5.2 0.00 0.01 0.01 53 1013.2
20210920005856 74 189 0.9 6.1 0.00 0.01 0.01 52 1013.2
20210920005351 75 213 1.7 6.1 0.00 0.01 0.01 51 1013.1
20210920004845 75 244 0.9 3.5 0.00 0.01 0.01 51 1013.2
20210920004339 75 235 0.9 3.5 0.00 0.01 0.01 50 1013.3
20210920003834 76 238 0.9 3.5 0.00 0.01 0.01 50 1013.2
20210920003326 76 212 0.9 3.5 0.00 0.01 0.01 49 1013.3
20210920002820 76 242 1.7 6.1 0.00 0.01 0.01 49 1013.2
20210920002314 76 252 1.7 6.1 0.00 0.01 0.01 47 1013.2
20210920001808 77 240 0.9 4.3 0.00 0.01 0.01 47 1013.2
20210920001302 77 240 0.9 3.5 0.00 0.01 0.01 47 1013.2
20210920000756 77 196 1.7 4.3 0.00 0.01 0.01 47 1013.2
20210920000251 77 218 2.6 7.0 0.00 0.01 0.01 48 1013.2
20210919235744 78 229 3.5 7.8 0.00 0.01 0.01 47 1013.2
20210919235238 78 250 2.6 7.8 0.00 0.01 0.01 46 1013.3
20210919234733 79 275 1.7 7.8 0.00 0.01 0.01 44 1013.4
20210919234229 80 224 1.7 6.1 0.00 0.01 0.01 45 1013.4
20210919233720 80 198 1.7 6.1 0.00 0.01 0.01 45 1013.4
20210919233214 80 244 0.9 5.2 0.00 0.01 0.01 45 1013.5
20210919232708 80 250 1.7 7.0 0.00 0.01 0.01 45 1013.4
20210919232202 80 246 1.7 7.0 0.00 0.01 0.01 45 1013.5
20210919231657 80 223 1.7 5.2 0.00 0.01 0.01 45 1013.5
20210919231150 80 167 1.7 6.1 0.00 0.01 0.01 45 1013.5
20210919230645 80 167 1.7 6.1 0.00 0.01 0.01 45 1013.6
20210919230138 80 151 1.7 5.2 0.00 0.01 0.01 45 1013.8
20210919225632 80 189 1.7 5.2 0.00 0.01 0.01 47 1013.7
20210919225126 80 207 1.7 7.0 0.00 0.01 0.01 47 1013.8
20210919224620 80 223 1.7 7.8 0.00 0.01 0.01 47 1013.8
20210919224114 80 256 2.6 7.8 0.00 0.01 0.01 47 1013.9
20210919223608 80 263 1.7 7.0 0.00 0.01 0.01 48 1013.9
20210919223102 80 221 1.7 7.0 0.00 0.01 0.01 47 1013.9
20210919222556 80 241 2.6 7.8 0.00 0.01 0.01 49 1014.1
20210919222050 80 171 3.5 7.8 0.00 0.01 0.01 48 1014.1
20210919221544 80 277 3.5 10.4 0.00 0.01 0.01 48 1014.2
20210919221038 81 198 2.6 10.4 0.00 0.01 0.01 47 1014.3
20210919220532 81 192 2.6 7.8 0.00 0.01 0.01 47 1014.3
20210919220026 80 286 2.6 8.7 0.00 0.01 0.01 48 1014.3
20210919215520 80 240 2.6 8.7 0.00 0.01 0.01 48 1014.2
20210919215014 80 232 2.6 8.7 0.00 0.01 0.01 47 1014.3
20210919214509 80 190 3.5 8.7 0.00 0.01 0.01 47 1014.3
20210919214002 82 148 3.5 7.8 0.00 0.01 0.01 45 1014.4
20210919213456 82 199 2.6 7.8 0.00 0.01 0.01 45 1014.5
20210919212950 82 248 1.7 6.1 0.00 0.01 0.01 45 1014.4
20210919212444 83 254 1.7 6.1 0.00 0.01 0.01 44 1014.4
20210919211938 83 196 1.7 6.1 0.00 0.01 0.01 44 1014.5
20210919211432 82 190 1.7 7.0 0.00 0.01 0.01 44 1014.5
20210919210926 82 171 1.7 7.0 0.00 0.01 0.01 44 1014.5
20210919210420 81 194 1.7 6.1 0.00 0.01 0.01 45 1014.7
20210919205914 81 211 2.6 7.8 0.00 0.01 0.01 45 1014.7
20210919205409 82 282 2.6 7.8 0.00 0.01 0.01 42 1014.8
20210919204902 82 249 1.7 7.8 0.00 0.01 0.01 44 1014.9
20210919204355 82 170 1.7 4.3 0.00 0.01 0.01 43 1014.9
20210919203850 81 165 1.7 6.1 0.00 0.01 0.01 43 1015.0
20210919203343 81 230 1.7 6.1 0.00 0.01 0.01 45 1015.0
20210919202838 81 225 1.7 7.0 0.00 0.01 0.01 45 1015.1
20210919202332 80 279 1.7 7.0 0.00 0.01 0.01 46 1015.1
20210919201826 80 234 1.7 7.0 0.00 0.01 0.01 48 1015.3
20210919201320 79 248 2.6 7.0 0.00 0.01 0.01 49 1015.3
20210919200814 79 256 2.6 7.8 0.00 0.01 0.01 50 1015.4
20210919200309 79 248 1.7 7.8 0.00 0.01 0.01 49 1015.4
20210919195802 78 205 1.7 6.1 0.00 0.01 0.01 52 1015.5
20210919195305 78 256 1.7 6.1 0.00 0.01 0.01 54 1015.5
20210919194759 76 308 2.6 6.1 0.00 0.01 0.01 58 1015.6
20210919194258 75 299 4.3 11.3 0.00 0.01 0.01 57 1015.6
20210919193759 76 281 3.5 11.3 0.00 0.01 0.01 58 1015.7
20210919193258 76 22 2.6 8.7 0.00 0.01 0.01 57 1015.7
20210919192755 77 329 1.7 5.2 0.00 0.01 0.01 57 1015.9
20210919192255 76 58 0.9 5.2 0.00 0.01 0.01 58 1015.8
20210919191755 76 263 0.9 2.6 0.00 0.01 0.01 59 1015.9
20210919191257 75 263 1.7 5.2 0.00 0.01 0.01 60 1015.9
20210919190755 74 15 1.7 5.2 0.00 0.01 0.01 61 1015.9
20210919190256 74 63 2.6 5.2 0.00 0.01 0.01 62 1016.0
20210919185754 74 24 2.6 6.1 0.00 0.01 0.01 62 1016.1
20210919185255 73 355 2.6 6.1 0.00 0.01 0.01 63 1016.3
20210919184757 73 209 1.7 6.1 0.00 0.01 0.01 63 1016.1
20210919184256 72 235 1.7 5.2 0.00 0.01 0.01 65 1016.1
20210919183756 72 56 1.7 5.2 0.00 0.01 0.01 65 1016.3
20210919183253 72 312 1.7 3.5 0.00 0.01 0.01 65 1016.3
20210919182754 71 126 1.7 3.5 0.00 0.01 0.01 66 1016.3
20210919182248 70 32 1.7 4.3 0.00 0.01 0.01 69 1016.4
20210919181742 70 53 1.7 6.1 0.00 0.01 0.01 69 1016.6
20210919181236 69 351 1.7 6.1 0.00 0.01 0.01 71 1016.6
20210919180731 69 293 1.7 6.1 0.00 0.01 0.01 72 1016.6
20210919180225 68 234 1.7 6.1 0.00 0.01 0.01 74 1016.8
20210919175719 68 254 1.7 3.5 0.00 0.01 0.01 73 1016.8
20210919175212 67 290 1.7 4.3 0.00 0.01 0.01 76 1016.9
20210919174706 66 285 2.6 5.2 0.00 0.01 0.01 77 1016.8
20210919174206 65 266 2.6 8.7 0.00 0.01 0.01 79 1016.9
20210919173703 65 294 3.5 8.7 0.00 0.01 0.01 78 1016.8
20210919173203 65 270 2.6 7.8 0.00 0.01 0.01 77 1017.0
20210919172703 65 261 2.6 7.0 0.00 0.01 0.01 79 1016.8
20210919172201 66 250 2.6 7.0 0.00 0.01 0.01 78 1016.9
20210919171701 66 272 2.6 7.0 0.00 0.01 0.01 80 1016.8
20210919171204 65 267 2.6 7.0 0.00 0.01 0.01 80 1016.9
20210919170702 65 235 2.6 7.0 0.00 0.01 0.01 82 1016.8
20210919170210 64 281 1.7 7.0 0.00 0.01 0.01 83 1016.8
20210919165701 64 197 1.7 4.3 0.00 0.01 0.01 85 1016.8
20210919165202 63 5 1.7 4.3 0.00 0.01 0.01 86 1016.7
20210919164703 63 10 0.9 4.3 0.00 0.01 0.01 87 1016.6
20210919164203 62 223 1.7 3.5 0.00 0.01 0.01 89 1016.5
20210919163659 62 355 1.7 3.5 0.00 0.01 0.01 91 1016.6
20210919163200 61 302 0.9 3.5 0.00 0.01 0.01 92 1016.5
20210919162657 60 277 0.9 5.2 0.00 0.01 0.01 93 1016.6
20210919162157 59 258 1.7 5.2 0.00 0.01 0.01 92 1016.5
20210919161700 60 227 1.7 3.5 0.00 0.01 0.01 93 1016.4
20210919161153 60 172 0.9 3.5 0.00 0.01 0.01 94 1016.3
20210919160648 60 174 0.9 3.5 0.00 0.01 0.01 95 1016.3
20210919160141 59 138 0.9 3.5 0.00 0.01 0.01 95 1016.4
20210919155635 58 113 1.7 3.5 0.00 0.01 0.01 95 1016.4
20210919155129 58 114 1.7 3.5 0.00 0.01 0.01 95 1016.3
20210919154623 57 117 1.7 3.5 0.00 0.01 0.01 95 1016.3
20210919154118 57 123 1.7 3.5 0.00 0.01 0.01 95 1016.4
20210919153612 57 104 0.9 3.5 0.00 0.01 0.01 95 1016.3
20210919153106 57 121 0.0 2.6 0.00 0.01 0.01 95 1016.4
20210919152600 57 48 0.0 1.7 0.00 0.01 0.01 95 1016.5
20210919152054 57 344 0.0 0.9 0.00 0.01 0.01 94 1016.7
20210919151547 57 344 0.0 1.7 0.00 0.01 0.01 95 1016.6
20210919151045 57 344 0.0 1.7 0.00 0.01 0.01 94 1016.6
20210919150535 57 242 0.0 0.0 0.00 0.01 0.01 95 1016.7
20210919150029 57 242 0.0 0.0 0.00 0.01 0.01 95 1016.7
20210919145524 57 242 0.0 0.0 0.00 0.01 0.01 95 1016.6
20210919145018 57 242 0.0 0.0 0.00 0.01 0.01 95 1016.5
20210919144512 56 242 0.0 0.0 0.00 0.01 0.01 94 1016.6
20210919144005 56 242 0.0 0.9 0.00 0.01 0.01 94 1016.5
20210919143501 56 242 0.0 0.9 0.00 0.01 0.01 94 1016.6
20210919142954 56 242 0.0 1.7 0.00 0.01 0.01 94 1016.5
20210919142448 56 242 0.9 2.6 0.00 0.01 0.01 94 1016.5
20210919141942 56 242 0.9 2.6 0.00 0.01 0.01 94 1016.4
20210919141435 56 242 0.0 1.7 0.00 0.01 0.01 94 1016.6
20210919140929 56 217 0.0 1.7 0.00 0.01 0.01 94 1016.4
20210919140423 56 210 0.0 1.7 0.00 0.01 0.01 94 1016.3
20210919135918 56 215 0.0 1.7 0.00 0.01 0.01 94 1016.1
20210919135412 56 216 0.0 1.7 0.00 0.01 0.01 94 1015.9
20210919134905 56 219 0.0 0.9 0.00 0.01 0.01 94 1016.0
20210919134401 56 219 0.0 0.9 0.00 0.01 0.01 94 1015.9
20210919133901 56 219 0.0 1.7 0.00 0.01 0.01 94 1015.9
20210919133400 56 219 0.0 1.7 0.00 0.01 0.01 94 1015.9
20210919132857 56 219 0.0 0.9 0.00 0.01 0.01 94 1015.8
20210919132355 56 219 0.0 1.7 0.00 0.01 0.01 94 1015.8
20210919131855 56 219 0.0 1.7 0.00 0.01 0.01 94 1015.8
20210919131354 56 198 0.9 1.7 0.00 0.01 0.01 94 1015.8
20210919130855 56 194 0.9 3.5 0.00 0.01 0.01 94 1015.8
20210919130356 56 195 0.9 3.5 0.00 0.01 0.01 94 1015.6
20210919125855 56 195 0.0 3.5 0.00 0.01 0.01 94 1015.6
20210919125356 56 169 0.0 3.5 0.00 0.01 0.01 94 1015.6
20210919124855 56 190 0.0 3.5 0.00 0.01 0.01 94 1015.5
20210919124354 56 175 0.0 3.5 0.00 0.01 0.01 94 1015.5
20210919123852 56 210 0.0 1.7 0.00 0.01 0.01 94 1015.6
20210919123354 56 184 0.0 2.6 0.00 0.01 0.01 94 1015.5
20210919122853 56 184 0.9 3.5 0.00 0.01 0.01 94 1015.5
20210919122354 56 172 0.0 3.5 0.00 0.01 0.01 94 1015.4
20210919121848 56 172 0.0 2.6 0.00 0.01 0.01 94 1015.4
20210919121343 56 173 0.0 1.7 0.00 0.01 0.01 94 1015.3
20210919120836 56 188 0.0 1.7 0.00 0.01 0.01 94 1015.2
20210919120332 56 188 0.0 1.7 0.00 0.01 0.01 94 1015.3
20210919115835 56 185 0.9 2.6 0.00 0.01 0.01 94 1015.3
20210919115333 56 196 0.9 2.6 0.00 0.01 0.01 94 1015.2
20210919114828 56 188 0.9 2.6 0.00 0.01 0.01 94 1015.2
20210919114330 56 196 0.0 2.6 0.00 0.01 0.01 94 1015.1
20210919113831 56 178 0.0 2.6 0.00 0.01 0.01 94 1015.2
20210919113329 56 192 0.0 1.7 0.00 0.01 0.01 93 1015.1
20210919112828 56 192 0.9 1.7 0.00 0.01 0.01 93 1015.2
20210919112330 56 178 0.9 3.5 0.00 0.01 0.01 94 1015.2
20210919111830 56 165 0.0 3.5 0.00 0.01 0.01 94 1015.2
20210919111327 56 156 0.0 1.7 0.00 0.01 0.01 94 1015.3
20210919110827 56 156 0.0 1.7 0.00 0.01 0.01 93 1015.4
20210919110329 56 149 0.0 2.6 0.00 0.01 0.01 94 1015.4
20210919105825 56 180 0.9 2.6 0.00 0.01 0.01 93 1015.4
20210919105323 56 192 0.9 3.5 0.00 0.01 0.01 93 1015.5
20210919104823 56 182 0.9 3.5 0.00 0.01 0.01 93 1015.6
20210919104323 56 175 0.0 2.6 0.00 0.01 0.01 93 1015.7
20210919103822 56 236 0.0 0.9 0.00 0.01 0.01 93 1015.6
20210919103316 56 236 0.0 0.9 0.00 0.01 0.01 93 1015.6
20210919102810 56 236 0.0 1.7 0.00 0.01 0.01 93 1015.7
20210919102305 56 236 0.0 2.6 0.00 0.01 0.01 93 1015.7
20210919101759 56 237 0.0 2.6 0.00 0.01 0.01 93 1015.7
20210919101252 56 234 0.0 1.7 0.00 0.01 0.01 93 1015.6
20210919100746 56 234 0.0 1.7 0.00 0.01 0.01 93 1015.6
20210919100240 56 205 0.0 1.7 0.00 0.01 0.01 93 1015.6
20210919095734 56 184 0.0 1.7 0.00 0.01 0.01 93 1015.7
20210919095227 56 184 0.0 4.3 0.00 0.01 0.01 93 1015.5
20210919094722 56 177 0.9 4.3 0.01 0.01 0.01 93 1015.7
20210919094216 56 169 0.9 1.7 0.01 0.01 0.01 93 1015.7
20210919093711 56 191 0.9 1.7 0.01 0.01 0.01 93 1015.7
20210919093209 56 191 0.9 2.6 0.01 0.01 0.01 93 1015.6
20210919092705 56 215 0.9 2.6 0.01 0.01 0.01 93 1015.8
20210919092206 56 175 0.9 2.6 0.01 0.01 0.01 93 1015.9
20210919091705 56 173 0.9 4.3 0.01 0.01 0.01 93 1016.0
20210919091203 56 209 0.9 4.3 0.01 0.01 0.01 93 1016.1
20210919090704 56 165 0.9 3.5 0.01 0.01 0.01 93 1016.1
20210919090204 56 192 0.9 1.7 0.01 0.01 0.01 92 1016.3
20210919085701 56 198 0.9 1.7 0.01 0.01 0.01 92 1016.3
20210919085201 56 196 0.9 2.6 0.01 0.01 0.01 92 1016.3
20210919084700 56 215 0.9 2.6 0.00 0.00 0.00 92 1016.1
20210919084159 56 178 0.9 4.3 0.00 0.00 0.00 92 1016.1
20210919083657 57 167 0.9 4.3 0.00 0.00 0.00 92 1016.1
20210919083154 57 159 0.9 3.5 0.00 0.00 0.00 92 1016.1
20210919082654 56 172 0.9 3.5 0.00 0.00 0.00 92 1016.3
20210919082153 57 175 0.9 2.6 0.00 0.00 0.00 92 1016.4
20210919081651 57 192 0.9 2.6 0.00 0.00 0.00 92 1016.4
20210919081150 57 192 0.9 2.6 0.00 0.00 0.00 92 1016.4
20210919080646 57 199 0.9 2.6 0.00 0.00 0.00 92 1016.5
20210919080149 57 194 0.9 2.6 0.00 0.00 0.00 92 1016.6
20210919075642 57 190 0.9 2.6 0.00 0.00 0.00 92 1016.7
20210919075136 57 192 0.9 2.6 0.00 0.00 0.00 92 1016.6
20210919074636 57 184 0.9 2.6 0.00 0.00 0.00 92 1016.7
20210919074136 57 219 0.9 2.6 0.00 0.00 0.00 91 1016.8
20210919073635 57 178 0.9 1.7 0.00 0.00 0.00 91 1016.7
20210919073135 57 178 0.9 1.7 0.00 0.00 0.00 91 1016.8
20210919072633 57 178 0.9 3.5 0.00 0.00 0.00 91 1016.8
20210919072135 57 178 1.7 3.5 0.00 0.00 0.00 91 1016.8
20210919071634 57 178 0.9 2.6 0.00 0.00 0.00 91 1016.7
20210919071134 57 178 0.9 2.6 0.00 0.00 0.00 91 1016.7
20210919070634 57 178 0.0 1.7 0.00 0.00 0.00 91 1016.7
20210919070131 57 178 0.0 1.7 0.00 0.00 0.00 91 1016.7
20210919065629 58 178 0.0 1.7 0.00 0.00 0.00 91 1016.7
20210919065130 57 178 0.0 1.7 0.00 0.00 0.00 91 1016.8
20210919064631 57 178 0.0 0.9 0.00 0.00 0.00 91 1016.8
20210919064126 57 178 0.0 0.9 0.00 0.00 0.00 90 1016.8
20210919063618 58 178 0.0 0.9 0.00 0.00 0.00 90 1016.8
20210919063112 58 178 0.0 0.9 0.00 0.00 0.00 91 1016.8
20210919062607 58 178 0.0 0.9 0.00 0.00 0.00 90 1016.9
20210919062103 58 178 0.0 1.7 0.00 0.00 0.00 91 1016.8
20210919061602 58 178 0.0 1.7 0.00 0.00 0.00 90 1016.9
20210919061057 58 178 0.0 1.7 0.00 0.00 0.00 90 1016.9
20210919060556 58 178 0.0 1.7 0.00 0.00 0.00 90 1016.9
20210919060054 58 178 0.0 2.6 0.00 0.00 0.00 90 1016.9
20210919055553 58 177 0.0 2.6 0.00 0.00 0.00 90 1016.8
20210919055053 58 177 0.0 1.7 0.00 0.00 0.00 90 1016.8
20210919054555 58 177 0.9 1.7 0.00 0.00 0.00 90 1016.8
20210919054054 58 177 0.9 4.3 0.00 0.00 0.00 90 1016.7
20210919053556 58 177 0.9 4.3 0.00 0.00 0.00 90 1016.7
20210919053055 58 184 0.9 2.6 0.00 0.00 0.00 90 1016.7
20210919052550 58 179 0.9 1.7 0.00 0.00 0.00 90 1016.8
20210919052047 58 179 0.9 2.6 0.00 0.00 0.00 89 1016.9
20210919051548 59 179 0.9 2.6 0.00 0.00 0.00 89 1016.8
20210919051047 59 202 0.0 1.7 0.00 0.00 0.00 89 1017.0
20210919050544 59 202 0.0 1.7 0.00 0.00 0.00 89 1017.2
20210919050045 59 202 0.0 1.7 0.00 0.00 0.00 89 1017.2
20210919045541 59 202 0.9 1.7 0.00 0.00 0.00 89 1017.1
20210919045038 59 238 0.0 1.7 0.00 0.00 0.00 88 1017.2
20210919044532 59 240 0.0 1.7 0.00 0.00 0.00 88 1017.2
20210919044026 59 240 0.0 1.7 0.00 0.00 0.00 88 1017.1
20210919043520 59 240 0.0 1.7 0.00 0.00 0.00 88 1017.2